Time;durP1;ratioP1;P1;durP2;ratioP2;P2;SDS_P1;SDS_P2;PMS_P1;PMS_P2;Temp;Humidity;BMP_temperature;BMP_pressure;BME280_temperature;BME280_humidity;BME280_pressure;Samples;Min_cycle;Max_cycle;Signal;HPM_P1;HPM_P2
2023/08/15 00:00:27;;;;;;;6.57;4.30;;;;;;;20.57;100.00;94855.22;5039448;28;20032;-86
2023/08/15 00:02:52;;;;;;;7.80;4.40;;;;;;;20.58;100.00;94854.13;5055967;28;20061;-86
2023/08/15 00:05:17;;;;;;;6.07;4.38;;;;;;;20.56;100.00;94854.44;5055683;28;20033;-86
2023/08/15 00:07:43;;;;;;;5.93;4.20;;;;;;;20.77;100.00;94851.09;5055579;28;20037;-86
2023/08/15 00:10:08;;;;;;;9.85;4.68;;;;;;;20.99;100.00;94854.59;5056070;28;20090;-86
2023/08/15 00:12:34;;;;;;;10.27;4.30;;;;;;;20.99;100.00;94850.06;5057163;28;20029;-86
2023/08/15 00:14:59;;;;;;;7.20;4.68;;;;;;;21.05;100.00;94853.31;5056098;28;20029;-86
2023/08/15 00:17:25;;;;;;;8.52;4.32;;;;;;;21.16;100.00;94851.84;5055386;28;20032;-86
2023/08/15 00:19:50;;;;;;;7.13;4.60;;;;;;;21.21;100.00;94850.84;5055416;28;20127;-86
2023/08/15 00:22:17;;;;;;;5.22;3.97;;;;;;;21.08;100.00;94852.66;5055686;28;20446;-86
2023/08/15 00:24:43;;;;;;;8.50;4.60;;;;;;;20.98;100.00;94845.84;5055652;28;20025;-86
2023/08/15 00:27:08;;;;;;;10.15;4.32;;;;;;;21.09;100.00;94848.09;5055372;28;20040;-86
2023/08/15 00:29:34;;;;;;;8.43;4.40;;;;;;;20.83;100.00;94841.81;5055620;28;20036;-86
2023/08/15 00:31:59;;;;;;;7.50;4.32;;;;;;;20.97;100.00;94844.28;5055516;28;20075;-85
2023/08/15 00:34:25;;;;;;;7.15;4.47;;;;;;;20.76;100.00;94847.63;5055273;28;20033;-86
2023/08/15 00:36:50;;;;;;;11.93;4.60;;;;;;;20.74;100.00;94844.50;5054446;28;20112;-85
2023/08/15 00:39:15;;;;;;;9.40;4.57;;;;;;;20.59;100.00;94837.06;5054566;28;20095;-85
2023/08/15 00:41:41;;;;;;;5.97;4.55;;;;;;;20.60;100.00;94834.09;5054115;28;20396;-85
2023/08/15 00:44:06;;;;;;;4.82;3.97;;;;;;;20.77;100.00;94837.78;5055229;28;20040;-85
2023/08/15 00:46:32;;;;;;;7.07;4.20;;;;;;;21.00;100.00;94840.97;5054058;28;20354;-85
2023/08/15 00:48:58;;;;;;;9.45;4.28;;;;;;;20.95;100.00;94837.69;5054924;28;20078;-85
2023/08/15 00:51:24;;;;;;;9.70;4.35;;;;;;;20.86;100.00;94833.19;5054365;28;20338;-85
2023/08/15 00:53:49;;;;;;;5.63;3.75;;;;;;;21.07;100.00;94840.47;5054680;28;20033;-85
2023/08/15 00:56:16;;;;;;;7.85;4.10;;;;;;;20.88;100.00;94839.00;5038130;28;20115;-85
2023/08/15 00:58:42;;;;;;;5.75;4.35;;;;;;;20.62;100.00;94839.06;5054491;28;20037;-85
2023/08/15 01:01:11;;;;;;;7.32;4.50;;;;;;;20.46;100.00;94836.19;5054389;28;20323;-85
2023/08/15 01:03:37;;;;;;;8.05;4.43;;;;;;;20.38;100.00;94835.13;5054922;28;20413;-85
2023/08/15 01:06:03;;;;;;;7.70;4.28;;;;;;;20.37;100.00;94833.56;5054741;28;20039;-85
2023/08/15 01:08:29;;;;;;;5.45;4.00;;;;;;;20.33;100.00;94838.72;5054634;28;20506;-85
2023/08/15 01:10:54;;;;;;;9.80;4.80;;;;;;;20.31;100.00;94829.47;5054193;28;20119;-86
2023/08/15 01:13:30;;;;;;;6.63;4.10;;;;;;;20.12;100.00;94830.63;5054568;28;20435;-86
2023/08/15 01:15:55;;;;;;;8.93;4.65;;;;;;;20.11;100.00;94830.94;5035652;28;20025;-86
2023/08/15 01:18:31;;;;;;;6.50;4.97;;;;;;;20.25;100.00;94834.19;5034745;28;20087;-86
2023/08/15 01:20:57;;;;;;;7.53;4.75;;;;;;;20.02;100.00;94821.13;5034527;28;20030;-86
2023/08/15 01:23:43;;;;;;;6.22;4.47;;;;;;;19.95;100.00;94828.78;5034613;28;20342;-86
2023/08/15 01:26:09;;;;;;;7.30;4.97;;;;;;;19.91;100.00;94823.28;5034300;28;20342;-86
2023/08/15 01:28:34;;;;;;;9.88;4.70;;;;;;;19.87;100.00;94825.00;5035297;28;20041;-86
2023/08/15 01:31:15;;;;;;;7.93;4.70;;;;;;;19.89;100.00;94824.72;5034218;28;20044;-86
2023/08/15 01:34:05;;;;;;;7.15;4.45;;;;;;;20.19;100.00;94830.16;5034168;28;20470;-86
2023/08/15 01:36:33;;;;;;;9.80;4.57;;;;;;;20.22;100.00;94826.84;5035514;28;20099;-86
2023/08/15 01:39:03;;;;;;;6.75;4.80;;;;;;;20.09;100.00;94825.16;5035467;28;20033;-86
2023/08/15 01:41:33;;;;;;;7.75;4.25;;;;;;;19.97;100.00;94820.50;5034158;28;20033;-86
2023/08/15 01:43:59;;;;;;;10.60;4.85;;;;;;;19.92;100.00;94819.56;5034321;28;20041;-86
2023/08/15 01:46:24;;;;;;;10.23;4.68;;;;;;;19.94;100.00;94813.13;5034254;28;20107;-86
2023/08/15 01:48:50;;;;;;;6.68;4.47;;;;;;;19.98;100.00;94811.44;5033676;28;20033;-86
2023/08/15 01:51:15;;;;;;;8.90;4.63;;;;;;;19.96;100.00;94806.41;5035404;28;20029;-86
2023/08/15 01:53:40;;;;;;;5.70;3.63;;;;;;;20.30;100.00;94811.97;5035348;28;20049;-86
2023/08/15 01:56:08;;;;;;;6.53;4.45;;;;;;;20.36;100.00;94807.25;5017685;28;20040;-86
2023/08/15 01:58:34;;;;;;;7.03;4.20;;;;;;;20.10;100.00;94811.56;5034040;28;20120;-86
2023/08/15 02:01:01;;;;;;;9.27;4.45;;;;;;;20.27;100.00;94800.06;5034123;28;20535;-86
2023/08/15 02:03:27;;;;;;;5.85;3.83;;;;;;;20.38;100.00;94800.53;5033843;28;20029;-86
2023/08/15 02:05:52;;;;;;;7.07;4.10;;;;;;;20.10;100.00;94805.44;5035583;28;20035;-86
2023/08/15 02:08:17;;;;;;;8.40;3.90;;;;;;;20.26;100.00;94797.75;5033993;28;20500;-86
2023/08/15 02:10:43;;;;;;;7.88;4.50;;;;;;;19.99;100.00;94799.69;5035301;28;20044;-86
2023/08/15 02:13:08;;;;;;;5.88;4.10;;;;;;;19.83;100.00;94794.06;5035427;28;20029;-86
2023/08/15 02:15:34;;;;;;;6.72;4.15;;;;;;;19.85;100.00;94797.97;5035583;28;20037;-86
2023/08/15 02:17:59;;;;;;;13.25;4.63;;;;;;;20.19;100.00;94788.34;5034709;28;20025;-86
2023/08/15 02:20:24;;;;;;;5.82;4.05;;;;;;;20.26;100.00;94795.09;5035165;28;20037;-86
2023/08/15 02:22:50;;;;;;;7.53;4.15;;;;;;;20.30;100.00;94788.00;5035151;28;20129;-85
2023/08/15 02:25:15;;;;;;;8.75;4.50;;;;;;;20.07;100.00;94785.56;5035071;28;20029;-86
2023/08/15 02:27:40;;;;;;;9.70;4.10;;;;;;;19.97;100.00;94789.34;5034955;28;20048;-86
2023/08/15 02:30:08;;;;;;;9.32;4.18;;;;;;;20.00;100.00;94787.97;5033390;28;20033;-86
2023/08/15 02:32:33;;;;;;;7.28;4.13;;;;;;;20.19;100.00;94783.03;5034717;28;20028;-86
2023/08/15 02:34:59;;;;;;;6.68;4.10;;;;;;;20.38;100.00;94783.75;5050340;28;20366;-86
2023/08/15 02:37:24;;;;;;;7.85;4.28;;;;;;;20.53;100.00;94779.78;5034359;28;20348;-86
2023/08/15 02:39:50;;;;;;;7.45;4.35;;;;;;;20.54;100.00;94781.34;5038543;28;20034;-86
2023/08/15 02:42:15;;;;;;;7.07;3.90;;;;;;;20.55;100.00;94777.59;5038779;28;20095;-86
2023/08/15 02:44:42;;;;;;;8.18;3.95;;;;;;;20.49;100.00;94774.31;5038321;28;20044;-83
2023/08/15 02:47:07;;;;;;;4.82;3.75;;;;;;;20.51;100.00;94771.31;5036743;28;20410;-83
2023/08/15 02:49:33;;;;;;;10.25;4.10;;;;;;;20.52;100.00;94773.69;5037983;28;20122;-83
2023/08/15 02:51:58;;;;;;;7.95;4.13;;;;;;;20.59;100.00;94768.66;5036715;28;20040;-83
2023/08/15 02:54:23;;;;;;;8.13;3.92;;;;;;;20.68;100.00;94771.25;5037933;28;20044;-83
2023/08/15 02:56:49;;;;;;;16.13;4.25;;;;;;;20.75;100.00;94765.44;5036540;28;20041;-83
2023/08/15 02:59:14;;;;;;;8.90;4.03;;;;;;;20.79;100.00;94762.88;5037894;28;20075;-83
2023/08/15 03:01:39;;;;;;;9.10;4.13;;;;;;;20.75;100.00;94770.75;5036631;28;20072;-83
2023/08/15 03:04:07;;;;;;;5.35;3.83;;;;;;;20.73;100.00;94763.06;5036215;28;20041;-83
2023/08/15 03:06:34;;;;;;;7.50;4.10;;;;;;;20.77;100.00;94760.56;5036603;28;20181;-83
2023/08/15 03:08:59;;;;;;;6.90;4.35;;;;;;;20.83;100.00;94758.50;5037673;28;20092;-83
2023/08/15 03:11:25;;;;;;;7.57;4.32;;;;;;;20.63;100.00;94764.22;5037687;28;20116;-83
2023/08/15 03:13:50;;;;;;;8.25;4.00;;;;;;;20.65;100.00;94760.47;5036309;28;20076;-83
2023/08/15 03:16:15;;;;;;;8.90;4.00;;;;;;;20.75;100.00;94760.88;5036392;28;20022;-83
2023/08/15 03:18:41;;;;;;;6.95;4.00;;;;;;;20.57;100.00;94762.06;5035801;28;20120;-83
2023/08/15 03:21:08;;;;;;;9.27;4.25;;;;;;;20.51;100.00;94760.69;5037728;28;20087;-83
2023/08/15 03:23:34;;;;;;;11.95;4.15;;;;;;;20.62;100.00;94764.53;5036189;28;20130;-83
2023/08/15 03:26:01;;;;;;;9.80;4.00;;;;;;;20.66;100.00;94760.16;5036301;28;20064;-83
2023/08/15 03:28:27;;;;;;;5.30;3.53;;;;;;;20.59;100.00;94755.34;5052744;28;20041;-83
2023/08/15 03:30:53;;;;;;;7.88;4.10;;;;;;;20.11;100.00;94746.63;5053252;28;20102;-83
2023/08/15 03:33:18;;;;;;;7.15;4.43;;;;;;;20.27;100.00;94754.06;5054790;28;20749;-83
2023/08/15 03:35:48;;;;;;;6.90;3.22;;;;;;;20.38;100.00;94757.16;5055329;28;20119;-83
2023/08/15 03:38:18;;;;;;;5.40;3.80;;;;;;;20.42;100.00;94758.06;5055091;28;20037;-83
2023/08/15 03:40:45;;;;;;;7.10;3.97;;;;;;;20.41;100.00;94751.97;5054286;28;20041;-83
2023/08/15 03:43:10;;;;;;;6.82;3.88;;;;;;;20.42;100.00;94753.53;5038951;28;20029;-83
2023/08/15 03:45:37;;;;;;;11.35;4.47;;;;;;;20.11;100.00;94751.16;5055543;28;20043;-83
2023/08/15 03:48:07;;;;;;;6.88;4.82;;;;;;;20.06;100.00;94754.75;5038789;28;20039;-83
2023/08/15 03:50:36;;;;;;;6.93;4.43;;;;;;;20.15;100.00;94747.53;5055303;28;20025;-83
2023/08/15 03:53:02;;;;;;;9.15;4.15;;;;;;;20.32;100.00;94746.69;5055234;28;20143;-83
2023/08/15 03:55:31;;;;;;;9.10;3.70;;;;;;;20.31;100.00;94761.09;5055434;28;20171;-83
2023/08/15 03:57:57;;;;;;;4.85;3.83;;;;;;;20.30;100.00;94759.53;5055509;28;20040;-83
2023/08/15 04:00:23;;;;;;;6.45;3.97;;;;;;;20.28;100.00;94758.28;5055423;28;20356;-83
2023/08/15 04:02:49;;;;;;;6.70;3.90;;;;;;;20.18;100.00;94759.44;5055193;28;20037;-83
2023/08/15 04:05:15;;;;;;;7.10;3.90;;;;;;;20.26;100.00;94765.81;5038793;28;20066;-81
2023/08/15 04:07:40;;;;;;;6.72;4.20;;;;;;;20.16;100.00;94762.41;5054802;28;20445;-81
2023/08/15 04:10:06;;;;;;;6.20;4.20;;;;;;;20.08;100.00;94765.84;5055267;28;20062;-81
2023/08/15 04:12:33;;;;;;;6.53;4.32;;;;;;;20.06;100.00;94760.88;5054748;28;20346;-80
2023/08/15 04:15:01;;;;;;;6.28;3.45;;;;;;;20.06;100.00;94762.75;5056341;28;20036;-81
2023/08/15 04:17:26;;;;;;;7.43;4.15;;;;;;;20.12;100.00;94763.34;5056124;28;20458;-81
2023/08/15 04:19:52;;;;;;;5.53;3.88;;;;;;;20.06;100.00;94766.19;5052361;28;20083;-81
2023/08/15 04:22:18;;;;;;;8.23;4.30;;;;;;;20.13;100.00;94768.38;5054712;28;20730;-81
2023/08/15 04:24:45;;;;;;;7.38;4.45;;;;;;;19.97;100.00;94764.66;5056184;28;20047;-81
2023/08/15 04:27:11;;;;;;;6.22;4.28;;;;;;;20.03;100.00;94761.50;5054573;28;20045;-81
2023/08/15 04:29:36;;;;;;;8.27;4.53;;;;;;;19.99;100.00;94767.78;5054805;28;20434;-81
2023/08/15 04:32:02;;;;;;;12.00;4.45;;;;;;;19.79;100.00;94767.31;5054716;28;20036;-81
2023/08/15 04:34:27;;;;;;;6.97;4.53;;;;;;;19.53;100.00;94770.81;5056033;28;20033;-81
2023/08/15 04:36:52;;;;;;;9.55;4.40;;;;;;;19.46;100.00;94765.97;5054558;28;20079;-81
2023/08/15 04:39:18;;;;;;;7.00;4.65;;;;;;;19.63;100.00;94765.16;5055613;28;20075;-81
2023/08/15 04:41:43;;;;;;;6.13;4.10;;;;;;;19.70;100.00;94766.56;5055528;28;20422;-80
2023/08/15 04:44:10;;;;;;;13.25;4.50;;;;;;;19.80;100.00;94768.91;5054353;28;20040;-80
2023/08/15 04:46:36;;;;;;;7.68;4.38;;;;;;;20.05;100.00;94766.50;5054634;28;20033;-80
2023/08/15 04:49:01;;;;;;;7.22;4.63;;;;;;;20.19;100.00;94767.06;5055669;28;20086;-81
2023/08/15 04:51:26;;;;;;;8.43;4.65;;;;;;;19.97;100.00;94769.97;5055671;28;20040;-81
2023/08/15 04:53:52;;;;;;;6.97;4.22;;;;;;;20.07;100.00;94769.63;5055700;28;20037;-81
2023/08/15 04:56:17;;;;;;;6.25;4.55;;;;;;;20.09;100.00;94771.97;5055592;28;20052;-81
2023/08/15 04:58:43;;;;;;;5.13;4.03;;;;;;;20.21;100.00;94777.41;5055118;28;20086;-81
2023/08/15 05:01:09;;;;;;;7.30;4.47;;;;;;;20.18;100.00;94770.06;5054832;28;20768;-81
2023/08/15 05:03:35;;;;;;;14.15;4.53;;;;;;;20.14;100.00;94780.56;5037722;28;20060;-81
2023/08/15 05:06:01;;;;;;;5.35;4.07;;;;;;;20.00;100.00;94783.41;5054202;28;20445;-81
2023/08/15 05:08:26;;;;;;;11.38;4.78;;;;;;;19.96;100.00;94779.81;5053398;28;20037;-81
2023/08/15 05:10:52;;;;;;;8.07;4.25;;;;;;;20.03;100.00;94776.69;5055260;28;20040;-81
2023/08/15 05:13:18;;;;;;;9.10;4.00;;;;;;;20.05;100.00;94777.13;5054064;28;20040;-81
2023/08/15 05:15:43;;;;;;;8.90;4.28;;;;;;;20.27;100.00;94780.69;5053765;28;20512;-81
2023/08/15 05:18:10;;;;;;;10.55;4.80;;;;;;;20.13;100.00;94784.31;5053290;28;20032;-81
2023/08/15 05:20:35;;;;;;;8.13;4.82;;;;;;;20.38;100.00;94781.09;5053763;28;20082;-81
2023/08/15 05:23:01;;;;;;;8.10;4.63;;;;;;;20.53;100.00;94787.78;5053408;28;20037;-81
2023/08/15 05:25:26;;;;;;;5.68;4.15;;;;;;;20.72;100.00;94787.34;5055103;28;20040;-81
2023/08/15 05:27:51;;;;;;;7.57;4.50;;;;;;;20.85;100.00;94790.94;5053515;28;20040;-81
2023/08/15 05:30:17;;;;;;;5.32;3.97;;;;;;;20.77;100.00;94785.28;5053638;28;20036;-81
2023/08/15 05:32:43;;;;;;;5.47;4.43;;;;;;;21.06;100.00;94785.63;5053235;28;20274;-81
2023/08/15 05:35:08;;;;;;;6.93;3.80;;;;;;;21.20;100.00;94782.69;5053658;28;20052;-81
2023/08/15 05:37:33;;;;;;;9.93;4.25;;;;;;;20.86;100.00;94781.81;5054785;28;20064;-81
2023/08/15 05:39:59;;;;;;;7.57;4.80;;;;;;;20.75;100.00;94782.16;5053631;28;20035;-81
2023/08/15 05:42:24;;;;;;;6.82;4.20;;;;;;;20.96;100.00;94789.44;5053110;28;20033;-81
2023/08/15 05:44:50;;;;;;;6.65;4.30;;;;;;;21.29;100.00;94793.28;5054692;28;20044;-83
2023/08/15 05:47:15;;;;;;;6.93;4.18;;;;;;;21.41;100.00;94795.25;5053190;28;20029;-83
2023/08/15 05:49:41;;;;;;;4.28;3.88;;;;;;;21.52;100.00;94798.28;5036849;28;20040;-83
2023/08/15 05:52:07;;;;;;;8.32;4.00;;;;;;;21.50;100.00;94790.59;5052841;28;20024;-83
2023/08/15 05:54:32;;;;;;;11.15;4.28;;;;;;;21.62;100.00;94797.91;5052909;28;20430;-83
2023/08/15 05:56:58;;;;;;;6.40;4.03;;;;;;;21.65;100.00;94797.22;5051731;28;20443;-83
2023/08/15 05:59:23;;;;;;;5.30;3.90;;;;;;;21.82;100.00;94801.66;5052903;28;20020;-83
2023/08/15 06:01:49;;;;;;;6.13;4.25;;;;;;;21.84;100.00;94801.31;5053135;28;20040;-83
2023/08/15 06:04:14;;;;;;;6.85;4.07;;;;;;;22.02;100.00;94794.72;5054398;28;20036;-83
2023/08/15 06:06:40;;;;;;;6.13;4.00;;;;;;;22.19;100.00;94806.31;5052955;28;20116;-83
2023/08/15 06:09:05;;;;;;;5.50;3.80;;;;;;;22.12;100.00;94796.19;5052377;28;20029;-83
2023/08/15 06:11:30;;;;;;;8.85;3.90;;;;;;;22.25;100.00;94804.22;5052903;28;20043;-83
2023/08/15 06:13:56;;;;;;;7.00;3.75;;;;;;;22.40;100.00;94816.13;5051925;28;20347;-84
2023/08/15 06:16:21;;;;;;;5.75;4.20;;;;;;;22.25;100.00;94810.31;5057510;28;20056;-84
2023/08/15 06:18:47;;;;;;;5.40;4.18;;;;;;;22.55;100.00;94806.72;5056178;28;20066;-83
2023/08/15 06:21:12;;;;;;;7.63;4.18;;;;;;;22.24;100.00;94808.00;5056842;28;20040;-84
2023/08/15 06:23:38;;;;;;;8.25;4.22;;;;;;;22.23;100.00;94809.88;5057024;28;20404;-83
2023/08/15 06:26:03;;;;;;;10.00;4.53;;;;;;;22.13;100.00;94805.75;5058382;28;20052;-83
2023/08/15 06:28:29;;;;;;;7.65;4.00;;;;;;;22.74;100.00;94809.59;5058076;28;20041;-83
2023/08/15 06:30:54;;;;;;;7.18;3.55;;;;;;;22.93;100.00;94808.25;5056555;28;20138;-83
2023/08/15 06:33:19;;;;;;;5.40;3.78;;;;;;;22.90;100.00;94806.25;5056856;28;20037;-83
2023/08/15 06:35:45;;;;;;;5.18;3.72;;;;;;;23.23;100.00;94807.97;5055122;28;20056;-83
2023/08/15 06:38:10;;;;;;;7.53;4.00;;;;;;;23.19;100.00;94801.00;5053505;28;20114;-83
2023/08/15 06:40:36;;;;;;;6.07;3.92;;;;;;;23.41;100.00;94805.09;5044843;28;20037;-83
2023/08/15 06:43:01;;;;;;;5.90;3.65;;;;;;;23.32;100.00;94805.22;5056506;28;20051;-83
2023/08/15 06:45:27;;;;;;;9.55;3.60;;;;;;;23.35;100.00;94812.56;5056460;28;20458;-83
2023/08/15 06:47:52;;;;;;;8.13;4.30;;;;;;;23.40;100.00;94811.56;5058190;28;20040;-83
2023/08/15 06:50:18;;;;;;;6.05;4.07;;;;;;;23.53;100.00;94807.72;5057897;28;20467;-83
2023/08/15 06:52:43;;;;;;;5.45;3.85;;;;;;;23.52;100.00;94810.72;5056651;28;20106;-83
2023/08/15 06:55:09;;;;;;;6.15;3.90;;;;;;;23.79;100.00;94816.44;5039591;28;20171;-83
2023/08/15 06:57:35;;;;;;;8.10;3.90;;;;;;;23.67;100.00;94820.69;5056670;28;20036;-83
2023/08/15 07:00:01;;;;;;;4.53;3.80;;;;;;;23.51;100.00;94820.63;5057973;28;20334;-84
2023/08/15 07:02:29;;;;;;;8.05;4.35;;;;;;;23.60;100.00;94823.19;5056571;28;20099;-84
2023/08/15 07:04:54;;;;;;;7.78;4.32;;;;;;;23.41;100.00;94823.81;5056429;28;20400;-83
2023/08/15 07:07:20;;;;;;;5.68;4.25;;;;;;;23.50;100.00;94821.75;5056285;28;20037;-84
2023/08/15 07:09:46;;;;;;;8.65;3.97;;;;;;;24.01;100.00;94825.78;5056291;28;20028;-83
2023/08/15 07:12:12;;;;;;;5.38;3.67;;;;;;;23.64;100.00;94825.94;5056383;28;20025;-83
2023/08/15 07:14:37;;;;;;;8.45;4.20;;;;;;;23.80;100.00;94821.41;5056049;28;20032;-85
2023/08/15 07:17:03;;;;;;;5.95;4.03;;;;;;;23.94;100.00;94828.28;5056393;28;20033;-84
2023/08/15 07:19:28;;;;;;;6.82;4.13;;;;;;;23.74;100.00;94828.13;5056577;28;20442;-86
2023/08/15 07:21:54;;;;;;;7.05;4.00;;;;;;;24.14;100.00;94818.50;5056414;28;20032;-85
2023/08/15 07:24:19;;;;;;;5.57;3.97;;;;;;;24.16;100.00;94829.63;5056160;28;20032;-85
2023/08/15 07:26:45;;;;;;;6.95;3.55;;;;;;;24.25;100.00;94826.81;5046733;28;20049;-85
2023/08/15 07:29:11;;;;;;;5.47;3.60;;;;;;;24.36;100.00;94830.53;5037886;28;20045;-86
2023/08/15 07:31:37;;;;;;;8.43;3.67;;;;;;;24.41;100.00;94824.94;5036390;28;20037;-84
2023/08/15 07:34:03;;;;;;;9.07;4.03;;;;;;;24.32;100.00;94826.19;5050735;28;20098;-87
2023/08/15 07:36:29;;;;;;;10.15;3.78;;;;;;;24.54;100.00;94833.66;5038322;28;20036;-87
2023/08/15 07:38:56;;;;;;;6.85;3.88;;;;;;;24.75;100.00;94843.34;5057168;28;20060;-86
2023/08/15 07:41:23;;;;;;;8.10;3.95;;;;;;;24.79;100.00;94835.38;5055376;28;20102;-85
2023/08/15 07:43:48;;;;;;;7.68;3.70;;;;;;;24.95;100.00;94835.38;5059133;28;20025;-85
2023/08/15 07:46:13;;;;;;;21.58;4.72;;;;;;;24.94;100.00;94842.63;5058088;28;20043;-85
2023/08/15 07:48:45;;;;;;;5.95;3.45;;;;;;;25.18;100.00;94837.41;5058810;28;20414;-85
2023/08/15 07:51:10;;;;;;;5.88;3.22;;;;;;;25.11;100.00;94838.03;5057780;28;20083;-85
2023/08/15 07:53:36;;;;;;;7.68;3.45;;;;;;;25.42;100.00;94839.84;5057717;28;20032;-85
2023/08/15 07:56:04;;;;;;;7.28;3.47;;;;;;;25.67;100.00;94838.81;5057548;28;20033;-84
2023/08/15 07:58:31;;;;;;;5.50;3.30;;;;;;;25.62;100.00;94844.47;5057315;28;20039;-83
2023/08/15 08:00:57;;;;;;;10.00;3.22;;;;;;;25.75;100.00;94843.22;5057316;28;20021;-83
2023/08/15 08:03:22;;;;;;;6.93;3.10;;;;;;;25.77;100.00;94840.94;5058537;28;20048;-83
2023/08/15 08:05:48;;;;;;;4.55;2.67;;;;;;;25.90;100.00;94843.50;5058584;28;20064;-83
2023/08/15 08:08:14;;;;;;;6.35;3.00;;;;;;;26.12;100.00;94841.97;5055445;28;20035;-83
2023/08/15 08:10:39;;;;;;;8.50;3.22;;;;;;;26.03;100.00;94839.53;5057424;28;20430;-83
2023/08/15 08:13:06;;;;;;;4.45;3.05;;;;;;;25.81;100.00;94841.03;5058704;28;20107;-83
2023/08/15 08:15:32;;;;;;;4.03;2.75;;;;;;;25.69;100.00;94845.41;5057453;28;20449;-83
2023/08/15 08:17:58;;;;;;;3.03;2.40;;;;;;;25.83;95.76;94841.44;5036117;28;20476;-85
2023/08/15 08:20:25;;;;;;;7.90;2.67;;;;;;;26.09;88.35;94838.09;5038537;28;20036;-84
2023/08/15 08:22:50;;;;;;;3.67;2.40;;;;;;;26.09;97.68;94846.13;5056938;28;20032;-83
2023/08/15 08:25:19;;;;;;;6.03;2.47;;;;;;;26.43;96.57;94845.59;5056943;28;20442;-83
2023/08/15 08:27:45;;;;;;;6.22;3.25;;;;;;;26.29;94.47;94842.69;5056883;28;20437;-83
2023/08/15 08:30:12;;;;;;;6.45;2.75;;;;;;;26.38;86.31;94848.59;5057369;28;20120;-84
2023/08/15 08:32:37;;;;;;;4.63;3.15;;;;;;;26.30;91.89;94842.34;5056937;28;20342;-83
